createdAt,value
2023-05-23T00:00:17.696Z,11.00
2023-05-23T00:03:03.499Z,11.05
2023-05-23T00:05:50.310Z,12.18
2023-05-23T00:08:35.291Z,8.65
2023-05-23T00:11:24.121Z,7.78
2023-05-23T00:14:09.697Z,6.82
2023-05-23T00:16:55.034Z,5.80
2023-05-23T00:19:40.310Z,6.18
2023-05-23T00:22:25.716Z,5.80
2023-05-23T00:25:11.275Z,5.95
2023-05-23T00:27:56.610Z,6.47
2023-05-23T00:30:42.867Z,6.53
2023-05-23T00:33:29.790Z,5.97
2023-05-23T00:36:15.400Z,6.80
2023-05-23T00:39:02.404Z,7.97
2023-05-23T00:41:51.467Z,7.05
2023-05-23T00:44:38.027Z,8.32
2023-05-23T00:47:23.548Z,8.45
2023-05-23T00:50:11.813Z,7.95
2023-05-23T00:52:58.950Z,7.75
2023-05-23T00:55:45.087Z,8.00
2023-05-23T00:58:30.798Z,8.48
2023-05-23T01:01:17.256Z,9.07
2023-05-23T01:04:04.415Z,8.35
2023-05-23T01:06:50.061Z,8.75
2023-05-23T01:09:35.622Z,9.27
2023-05-23T01:12:31.416Z,8.38
2023-05-23T01:15:21.583Z,8.52
2023-05-23T01:18:12.918Z,8.00
2023-05-23T01:21:06.563Z,8.30
2023-05-23T01:23:59.160Z,8.02
2023-05-23T01:27:03.160Z,8.95
2023-05-23T01:29:54.888Z,8.75
2023-05-23T01:32:41.349Z,9.52
2023-05-23T01:35:27.758Z,8.60
2023-05-23T01:38:13.392Z,9.63
2023-05-23T01:40:58.484Z,8.55
2023-05-23T01:43:44.072Z,8.90
2023-05-23T01:46:30.969Z,7.90
2023-05-23T01:49:18.149Z,8.82
2023-05-23T01:52:05.975Z,8.20
2023-05-23T01:54:52.741Z,7.32
2023-05-23T01:57:39.003Z,7.00
2023-05-23T02:00:24.422Z,8.73
2023-05-23T02:03:11.816Z,7.80
2023-05-23T02:05:57.277Z,7.78
2023-05-23T02:08:43.183Z,7.88
2023-05-23T02:11:28.477Z,7.43
2023-05-23T02:14:14.086Z,7.97
2023-05-23T02:17:00.368Z,6.90
2023-05-23T02:19:46.129Z,7.30
2023-05-23T02:22:31.723Z,7.57
2023-05-23T02:25:17.389Z,6.13
2023-05-23T02:28:02.860Z,6.57
2023-05-23T02:30:48.332Z,7.40
2023-05-23T02:33:33.869Z,7.63
2023-05-23T02:36:19.351Z,6.80
2023-05-23T02:39:05.726Z,7.53
2023-05-23T02:41:51.453Z,7.00
2023-05-23T02:44:36.820Z,6.45
2023-05-23T02:47:22.278Z,6.28
2023-05-23T02:50:08.098Z,6.10
2023-05-23T02:52:53.633Z,5.70
2023-05-23T02:55:39.578Z,5.90
2023-05-23T02:58:25.354Z,5.63
2023-05-23T03:01:11.984Z,5.63
2023-05-23T03:03:58.149Z,5.90
2023-05-23T03:06:44.314Z,5.55
2023-05-23T03:09:29.905Z,5.28
2023-05-23T03:12:15.551Z,5.40
2023-05-23T03:15:00.952Z,4.68
2023-05-23T03:17:46.475Z,4.40
2023-05-23T03:20:34.361Z,4.85
2023-05-23T03:23:19.880Z,4.05
2023-05-23T03:26:06.629Z,4.45
2023-05-23T03:28:52.662Z,4.00
2023-05-23T03:31:38.327Z,4.03
2023-05-23T03:34:23.934Z,3.92
2023-05-23T03:37:09.512Z,3.80
2023-05-23T03:39:54.943Z,3.97
2023-05-23T03:42:40.381Z,3.75
2023-05-23T03:45:27.734Z,3.92
2023-05-23T03:48:13.226Z,3.67
2023-05-23T03:51:00.261Z,4.10
2023-05-23T03:53:45.678Z,3.72
2023-05-23T03:56:31.193Z,4.40
2023-05-23T03:59:17.282Z,3.78
2023-05-23T04:02:03.701Z,4.63
2023-05-23T04:04:48.908Z,4.50
2023-05-23T04:07:34.821Z,3.67
2023-05-23T04:10:20.521Z,4.00
2023-05-23T04:13:06.651Z,4.40
2023-05-23T04:15:52.589Z,4.50
2023-05-23T04:18:39.236Z,4.45
2023-05-23T04:21:25.606Z,4.35
2023-05-23T04:24:38.213Z,4.28
2023-05-23T04:27:25.997Z,4.82
2023-05-23T04:30:14.272Z,5.50
2023-05-23T04:33:02.374Z,4.80
2023-05-23T04:35:49.352Z,4.90
2023-05-23T04:38:35.410Z,4.15
2023-05-23T04:41:23.433Z,5.22
2023-05-23T04:44:18.414Z,5.57
2023-05-23T04:47:19.162Z,5.28
2023-05-23T04:50:14.934Z,5.47
2023-05-23T04:53:00.443Z,5.75
2023-05-23T04:55:46.187Z,5.38
2023-05-23T04:58:35.450Z,5.43
2023-05-23T05:01:28.006Z,5.38
2023-05-23T05:04:13.313Z,5.60
2023-05-23T05:06:58.634Z,6.00
2023-05-23T05:09:44.298Z,6.10
2023-05-23T05:12:30.619Z,5.95
2023-05-23T05:15:20.396Z,5.70
2023-05-23T05:18:12.105Z,5.40
2023-05-23T05:20:58.643Z,6.95
2023-05-23T05:23:43.846Z,6.20
2023-05-23T05:26:29.530Z,6.28
2023-05-23T05:29:15.609Z,6.32
2023-05-23T05:32:01.306Z,6.47
2023-05-23T05:34:49.358Z,6.10
2023-05-23T05:37:35.997Z,6.10
2023-05-23T05:40:21.335Z,5.78
2023-05-23T05:43:06.707Z,5.40
2023-05-23T05:45:52.658Z,4.45
2023-05-23T05:48:38.095Z,5.13
2023-05-23T05:51:26.566Z,4.93
2023-05-23T05:54:11.929Z,5.18
2023-05-23T05:56:57.302Z,4.22
2023-05-23T05:59:43.185Z,4.43
2023-05-23T06:02:28.595Z,4.53
2023-05-23T06:05:16.317Z,3.60
2023-05-23T06:08:02.035Z,3.53
2023-05-23T06:10:47.503Z,3.30
2023-05-23T06:13:32.791Z,3.40
2023-05-23T06:16:18.128Z,3.28
2023-05-23T06:19:04.090Z,3.20
2023-05-23T06:21:50.520Z,3.15
2023-05-23T06:24:35.902Z,3.22
2023-05-23T06:27:21.762Z,3.47
2023-05-23T06:30:07.727Z,3.30
2023-05-23T06:32:53.467Z,3.50
2023-05-23T06:35:38.799Z,3.40
2023-05-23T06:38:24.158Z,3.55
2023-05-23T06:41:09.550Z,3.20
2023-05-23T06:43:55.892Z,3.50
2023-05-23T06:46:45.349Z,2.80
2023-05-23T06:49:31.320Z,2.47
2023-05-23T06:52:16.575Z,3.05
2023-05-23T06:55:02.418Z,3.00
2023-05-23T06:57:47.694Z,3.47
2023-05-23T07:00:33.218Z,3.00
2023-05-23T07:03:29.668Z,3.05
2023-05-23T07:06:19.296Z,2.90
2023-05-23T07:09:05.313Z,3.30
2023-05-23T07:11:51.016Z,3.00
2023-05-23T07:14:38.121Z,2.75
2023-05-23T07:17:24.282Z,3.05
2023-05-23T07:20:10.250Z,2.70
2023-05-23T07:22:57.350Z,3.10
2023-05-23T07:25:53.853Z,2.30
2023-05-23T07:28:50.293Z,2.60
2023-05-23T07:31:36.104Z,2.70
2023-05-23T07:34:22.172Z,2.55
2023-05-23T07:37:14.178Z,2.40
2023-05-23T07:40:02.600Z,2.75
2023-05-23T07:42:48.151Z,2.67
2023-05-23T07:45:33.626Z,2.47
2023-05-23T07:48:19.619Z,2.70
2023-05-23T07:51:05.197Z,2.40
2023-05-23T07:53:50.448Z,2.63
2023-05-23T07:56:40.937Z,2.60
2023-05-23T07:59:26.907Z,3.00
2023-05-23T08:02:14.025Z,2.60
2023-05-23T08:05:00.464Z,3.00
2023-05-23T08:07:46.094Z,2.80
2023-05-23T08:10:32.394Z,2.35
2023-05-23T08:13:25.209Z,2.47
2023-05-23T08:16:30.876Z,2.97
2023-05-23T08:19:16.472Z,2.50
2023-05-23T08:22:04.624Z,3.03
2023-05-23T08:24:50.086Z,2.60
2023-05-23T08:27:36.667Z,2.88
2023-05-23T08:30:30.025Z,2.92
2023-05-23T08:33:15.429Z,2.70
2023-05-23T08:36:04.043Z,2.88
2023-05-23T08:38:51.745Z,2.83
2023-05-23T08:41:43.945Z,3.08
2023-05-23T08:44:30.815Z,2.42
2023-05-23T08:47:20.382Z,2.88
2023-05-23T08:50:21.873Z,2.90
2023-05-23T08:53:10.272Z,2.33
2023-05-23T08:56:02.322Z,2.67
2023-05-23T08:58:55.574Z,2.28
2023-05-23T09:01:43.254Z,2.70
2023-05-23T09:04:32.410Z,2.15
2023-05-23T09:07:22.525Z,2.50
2023-05-23T09:10:10.853Z,2.90
2023-05-23T09:12:56.485Z,2.85
2023-05-23T09:16:04.251Z,2.67
2023-05-23T09:18:55.740Z,2.55
2023-05-23T09:21:46.717Z,2.15
2023-05-23T09:24:40.046Z,2.42
2023-05-23T09:27:28.045Z,3.28
2023-05-23T09:30:14.232Z,3.10
2023-05-23T09:33:05.515Z,3.47
2023-05-23T09:35:51.828Z,2.78
2023-05-23T09:38:46.067Z,2.92
2023-05-23T09:41:35.199Z,2.72
2023-05-23T09:44:24.151Z,2.60
2023-05-23T09:47:09.574Z,2.53
2023-05-23T09:49:55.610Z,2.60
2023-05-23T09:52:41.445Z,2.97
2023-05-23T09:55:27.290Z,2.03
2023-05-23T09:58:13.971Z,2.97
2023-05-23T10:01:03.774Z,3.03
2023-05-23T10:03:51.697Z,2.30
2023-05-23T10:06:54.069Z,2.92
2023-05-23T10:09:41.656Z,3.08
2023-05-23T10:12:44.465Z,2.85
2023-05-23T10:15:36.390Z,2.30
2023-05-23T10:18:26.833Z,2.45
2023-05-23T10:21:15.656Z,2.30
2023-05-23T10:24:02.304Z,2.90
2023-05-23T10:26:48.681Z,3.08
2023-05-23T10:29:35.442Z,2.63
2023-05-23T10:32:21.250Z,2.65
2023-05-23T10:35:45.406Z,2.17
2023-05-23T10:38:51.917Z,2.67
2023-05-23T10:41:53.064Z,2.58
2023-05-23T10:44:38.611Z,2.50
2023-05-23T10:47:28.810Z,2.85
2023-05-23T10:50:17.099Z,2.40
2023-05-23T10:53:05.013Z,2.50
2023-05-23T10:55:50.007Z,2.22
2023-05-23T10:58:37.543Z,2.50
2023-05-23T11:01:23.636Z,1.92
2023-05-23T11:04:12.296Z,2.72
2023-05-23T11:06:58.632Z,2.95
2023-05-23T11:10:14.099Z,2.60
2023-05-23T11:13:08.648Z,2.80
2023-05-23T11:15:54.300Z,2.95
2023-05-23T11:18:39.823Z,2.25
2023-05-23T11:21:25.920Z,2.30
2023-05-23T11:24:11.439Z,2.10
2023-05-23T11:27:01.291Z,1.90
2023-05-23T11:30:00.317Z,2.72
2023-05-23T11:32:54.414Z,2.40
2023-05-23T11:35:48.145Z,2.08
2023-05-23T11:38:34.225Z,2.42
2023-05-23T11:41:19.693Z,2.53
2023-05-23T11:44:13.186Z,1.92
2023-05-23T11:47:08.422Z,3.10
2023-05-23T11:49:54.736Z,2.10
2023-05-23T11:52:40.170Z,1.85
2023-05-23T11:55:25.907Z,2.28
2023-05-23T11:58:11.551Z,5.45
2023-05-23T12:01:03.758Z,2.50
2023-05-23T12:03:51.404Z,2.30
2023-05-23T12:06:40.758Z,2.35
2023-05-23T12:09:26.120Z,2.60
2023-05-23T12:12:13.161Z,1.92
2023-05-23T12:14:58.841Z,2.30
2023-05-23T12:17:46.326Z,2.00
2023-05-23T12:20:34.923Z,2.20
2023-05-23T12:23:24.894Z,1.73
2023-05-23T12:26:12.709Z,1.80
2023-05-23T12:29:00.119Z,2.33
2023-05-23T12:31:49.066Z,2.13
2023-05-23T12:34:34.948Z,1.90
2023-05-23T12:37:21.989Z,1.90
2023-05-23T12:40:18.410Z,2.10
2023-05-23T12:43:08.710Z,2.65
2023-05-23T12:45:54.114Z,1.92
2023-05-23T12:48:39.531Z,2.13
2023-05-23T12:51:25.109Z,2.20
2023-05-23T12:54:10.466Z,2.10
2023-05-23T12:56:56.442Z,1.98
2023-05-23T12:59:42.117Z,2.13
2023-05-23T13:02:28.813Z,1.95
2023-05-23T13:05:14.484Z,1.95
2023-05-23T13:08:00.279Z,1.77
2023-05-23T13:10:46.146Z,1.88
2023-05-23T13:13:33.782Z,2.08
2023-05-23T13:16:19.158Z,1.90
2023-05-23T13:19:04.792Z,1.90
2023-05-23T13:21:50.350Z,1.90
2023-05-23T13:24:39.196Z,1.52
2023-05-23T13:27:24.341Z,2.15
2023-05-23T13:30:10.069Z,1.67
2023-05-23T13:32:55.799Z,1.60
2023-05-23T13:35:41.622Z,2.17
2023-05-23T13:38:27.662Z,2.60
2023-05-23T13:41:13.232Z,1.55
2023-05-23T13:43:58.746Z,1.63
2023-05-23T13:46:44.222Z,2.45
2023-05-23T13:49:29.614Z,1.42
2023-05-23T13:52:15.435Z,2.08
2023-05-23T13:55:01.564Z,2.42
2023-05-23T13:57:47.153Z,2.00
2023-05-23T14:00:32.721Z,1.92
2023-05-23T14:03:19.456Z,1.70
2023-05-23T14:06:04.985Z,1.90
2023-05-23T14:08:51.135Z,1.88
2023-05-23T14:11:36.477Z,1.75
2023-05-23T14:14:21.992Z,1.95
2023-05-23T14:17:07.671Z,1.80
2023-05-23T14:19:53.104Z,1.83
2023-05-23T14:22:38.670Z,1.40
2023-05-23T14:25:24.185Z,1.80
2023-05-23T14:28:09.524Z,1.50
2023-05-23T14:30:55.836Z,1.65
2023-05-23T14:33:41.725Z,1.70
2023-05-23T14:36:28.510Z,1.95
2023-05-23T14:39:14.270Z,1.67
2023-05-23T14:41:59.642Z,2.00
2023-05-23T14:44:45.254Z,2.85
2023-05-23T14:47:32.108Z,2.30
2023-05-23T14:50:17.524Z,2.00
2023-05-23T14:53:03.121Z,1.95
2023-05-23T14:55:48.456Z,1.90
2023-05-23T14:58:33.938Z,3.45
2023-05-23T15:01:19.406Z,3.08
2023-05-23T15:04:05.772Z,1.45
2023-05-23T15:06:51.104Z,1.83
2023-05-23T15:09:36.652Z,1.73
2023-05-23T15:12:22.622Z,1.80
2023-05-23T15:15:08.874Z,1.73
2023-05-23T15:17:54.132Z,2.00
2023-05-23T15:20:39.536Z,1.70
2023-05-23T15:23:24.696Z,2.35
2023-05-23T15:26:10.257Z,2.47
2023-05-23T15:28:55.906Z,2.20
2023-05-23T15:31:42.012Z,1.90
2023-05-23T15:34:27.749Z,2.47
2023-05-23T15:37:13.111Z,1.95
2023-05-23T15:39:58.627Z,1.75
2023-05-23T15:42:44.129Z,2.03
2023-05-23T15:45:29.519Z,2.38
2023-05-23T15:48:15.396Z,1.90
2023-05-23T15:51:00.989Z,1.95
2023-05-23T15:54:00.224Z,1.88
2023-05-23T15:56:46.434Z,2.00
2023-05-23T15:59:32.030Z,1.92
2023-05-23T16:02:18.908Z,2.38
2023-05-23T16:05:04.828Z,1.73
2023-05-23T16:07:51.312Z,2.17
2023-05-23T16:10:37.000Z,1.73
2023-05-23T16:13:22.583Z,1.83
2023-05-23T16:16:08.327Z,1.80
2023-05-23T16:18:53.563Z,1.83
2023-05-23T16:21:39.078Z,2.13
2023-05-23T16:24:24.769Z,2.00
2023-05-23T16:27:10.150Z,1.63
2023-05-23T16:29:55.549Z,2.13
2023-05-23T16:32:41.076Z,2.00
2023-05-23T16:35:26.458Z,1.90
2023-05-23T16:38:12.133Z,1.85
2023-05-23T16:40:57.545Z,1.55
2023-05-23T16:43:43.047Z,1.30
2023-05-23T16:46:28.485Z,1.50
2023-05-23T16:49:14.014Z,1.80
2023-05-23T16:51:59.394Z,1.70
2023-05-23T16:54:45.037Z,1.50
2023-05-23T16:57:30.391Z,2.03
2023-05-23T17:00:17.115Z,1.80
2023-05-23T17:03:02.894Z,1.75
2023-05-23T17:05:48.325Z,1.40
2023-05-23T17:08:33.759Z,1.55
2023-05-23T17:11:19.709Z,2.10
2023-05-23T17:14:04.856Z,1.73
2023-05-23T17:16:50.327Z,1.63
2023-05-23T17:19:36.105Z,1.60
